sensor_id;sensor_type;location;lat;lon;timestamp;temperature;humidity
21787;DHT22;11055;50.870;4.316;2022-09-30T00:00:40;12.20;99.90
21787;DHT22;11055;50.870;4.316;2022-09-30T00:03:05;12.40;99.90
21787;DHT22;11055;50.870;4.316;2022-09-30T00:05:31;12.50;99.90
21787;DHT22;11055;50.870;4.316;2022-09-30T00:07:56;12.70;99.90
21787;DHT22;11055;50.870;4.316;2022-09-30T00:10:22;12.70;99.90
21787;DHT22;11055;50.870;4.316;2022-09-30T00:12:49;12.90;99.90
21787;DHT22;11055;50.870;4.316;2022-09-30T00:15:15;13.00;99.90
21787;DHT22;11055;50.870;4.316;2022-09-30T00:17:41;13.10;99.90
21787;DHT22;11055;50.870;4.316;2022-09-30T00:20:07;12.90;99.90
21787;DHT22;11055;50.870;4.316;2022-09-30T00:22:32;13.00;99.90
21787;DHT22;11055;50.870;4.316;2022-09-30T00:24:58;13.00;99.90
21787;DHT22;11055;50.870;4.316;2022-09-30T00:27:23;12.90;99.90
21787;DHT22;11055;50.870;4.316;2022-09-30T00:29:49;12.80;99.90
21787;DHT22;11055;50.870;4.316;2022-09-30T00:32:15;12.40;99.90
21787;DHT22;11055;50.870;4.316;2022-09-30T00:34:40;12.00;99.90
21787;DHT22;11055;50.870;4.316;2022-09-30T00:37:06;11.60;99.90
21787;DHT22;11055;50.870;4.316;2022-09-30T00:39:33;11.40;99.90
21787;DHT22;11055;50.870;4.316;2022-09-30T00:42:03;11.10;99.90
21787;DHT22;11055;50.870;4.316;2022-09-30T00:47:25;10.70;99.90
21787;DHT22;11055;50.870;4.316;2022-09-30T00:49:54;10.60;99.90
21787;DHT22;11055;50.870;4.316;2022-09-30T00:52:22;10.60;99.90
21787;DHT22;11055;50.870;4.316;2022-09-30T00:54:47;10.80;99.90
21787;DHT22;11055;50.870;4.316;2022-09-30T00:57:13;11.10;99.90
21787;DHT22;11055;50.870;4.316;2022-09-30T00:59:40;11.30;99.90
21787;DHT22;11055;50.870;4.316;2022-09-30T01:02:07;11.50;99.90
21787;DHT22;11055;50.870;4.316;2022-09-30T01:04:34;11.60;99.90
21787;DHT22;11055;50.870;4.316;2022-09-30T01:07:01;11.60;99.90
21787;DHT22;11055;50.870;4.316;2022-09-30T01:09:27;11.10;99.90
21787;DHT22;11055;50.870;4.316;2022-09-30T01:11:53;10.70;99.90
21787;DHT22;11055;50.870;4.316;2022-09-30T01:14:19;10.40;99.90
21787;DHT22;11055;50.870;4.316;2022-09-30T01:16:54;10.20;99.90
21787;DHT22;11055;50.870;4.316;2022-09-30T01:24:49;10.00;99.90
21787;DHT22;11055;50.870;4.316;2022-09-30T01:27:22;10.00;99.90
21787;DHT22;11055;50.870;4.316;2022-09-30T01:40:04;9.80;99.90
21787;DHT22;11055;50.870;4.316;2022-09-30T01:45:05;9.90;99.90
21787;DHT22;11055;50.870;4.316;2022-09-30T01:55:33;10.00;99.90
21787;DHT22;11055;50.870;4.316;2022-09-30T01:58:03;10.00;99.90
21787;DHT22;11055;50.870;4.316;2022-09-30T02:00:31;9.90;99.90
21787;DHT22;11055;50.870;4.316;2022-09-30T02:03:00;9.90;99.90
21787;DHT22;11055;50.870;4.316;2022-09-30T02:05:33;10.00;99.90
21787;DHT22;11055;50.870;4.316;2022-09-30T02:08:03;10.20;99.90
21787;DHT22;11055;50.870;4.316;2022-09-30T02:13:08;10.30;99.90
21787;DHT22;11055;50.870;4.316;2022-09-30T02:15:38;10.10;99.90
21787;DHT22;11055;50.870;4.316;2022-09-30T02:18:13;10.00;99.90
21787;DHT22;11055;50.870;4.316;2022-09-30T02:20:44;9.90;99.90
21787;DHT22;11055;50.870;4.316;2022-09-30T02:23:13;9.70;99.90
21787;DHT22;11055;50.870;4.316;2022-09-30T02:25:41;9.60;99.90
21787;DHT22;11055;50.870;4.316;2022-09-30T02:28:10;9.50;99.90
21787;DHT22;11055;50.870;4.316;2022-09-30T02:30:38;9.50;99.90
21787;DHT22;11055;50.870;4.316;2022-09-30T02:33:11;9.50;99.90
21787;DHT22;11055;50.870;4.316;2022-09-30T02:35:40;9.40;99.90
21787;DHT22;11055;50.870;4.316;2022-09-30T02:38:09;9.40;99.90
21787;DHT22;11055;50.870;4.316;2022-09-30T02:40:45;9.40;99.90
21787;DHT22;11055;50.870;4.316;2022-09-30T02:43:15;9.40;99.90
21787;DHT22;11055;50.870;4.316;2022-09-30T02:50:36;9.30;99.90
21787;DHT22;11055;50.870;4.316;2022-09-30T02:58:20;9.20;99.90
21787;DHT22;11055;50.870;4.316;2022-09-30T03:00:47;9.10;99.90
21787;DHT22;11055;50.870;4.316;2022-09-30T03:05:42;9.20;99.90
21787;DHT22;11055;50.870;4.316;2022-09-30T03:08:07;9.20;99.90
21787;DHT22;11055;50.870;4.316;2022-09-30T03:10:33;9.20;99.90
21787;DHT22;11055;50.870;4.316;2022-09-30T03:13:08;9.20;99.90
21787;DHT22;11055;50.870;4.316;2022-09-30T03:21:16;9.30;99.90
21787;DHT22;11055;50.870;4.316;2022-09-30T03:29:23;9.30;99.90
21787;DHT22;11055;50.870;4.316;2022-09-30T03:31:57;9.40;99.90
21787;DHT22;11055;50.870;4.316;2022-09-30T03:34:28;9.50;99.90
21787;DHT22;11055;50.870;4.316;2022-09-30T03:39:36;9.50;99.90
21787;DHT22;11055;50.870;4.316;2022-09-30T03:42:14;9.40;99.90
21787;DHT22;11055;50.870;4.316;2022-09-30T03:44:44;9.30;99.90
21787;DHT22;11055;50.870;4.316;2022-09-30T03:47:14;9.30;99.90
21787;DHT22;11055;50.870;4.316;2022-09-30T03:49:44;9.30;99.90
21787;DHT22;11055;50.870;4.316;2022-09-30T03:52:11;9.20;99.90
21787;DHT22;11055;50.870;4.316;2022-09-30T03:54:45;9.10;99.90
21787;DHT22;11055;50.870;4.316;2022-09-30T03:57:11;9.20;99.90
21787;DHT22;11055;50.870;4.316;2022-09-30T03:59:37;9.20;99.90
21787;DHT22;11055;50.870;4.316;2022-09-30T04:02:03;9.20;99.90
21787;DHT22;11055;50.870;4.316;2022-09-30T04:04:29;9.30;99.90
21787;DHT22;11055;50.870;4.316;2022-09-30T04:06:55;9.20;99.90
21787;DHT22;11055;50.870;4.316;2022-09-30T04:09:20;9.20;99.90
21787;DHT22;11055;50.870;4.316;2022-09-30T04:11:45;9.20;99.90
21787;DHT22;11055;50.870;4.316;2022-09-30T04:14:11;9.20;99.90
21787;DHT22;11055;50.870;4.316;2022-09-30T04:16:36;9.20;99.90
21787;DHT22;11055;50.870;4.316;2022-09-30T04:19:02;9.20;99.90
21787;DHT22;11055;50.870;4.316;2022-09-30T04:21:27;9.10;99.90
21787;DHT22;11055;50.870;4.316;2022-09-30T04:23:53;9.10;99.90
21787;DHT22;11055;50.870;4.316;2022-09-30T04:26:19;9.10;99.90
21787;DHT22;11055;50.870;4.316;2022-09-30T04:28:44;9.10;99.90
21787;DHT22;11055;50.870;4.316;2022-09-30T04:31:10;9.00;99.90
21787;DHT22;11055;50.870;4.316;2022-09-30T04:33:41;9.00;99.90
21787;DHT22;11055;50.870;4.316;2022-09-30T04:36:08;9.00;99.90
21787;DHT22;11055;50.870;4.316;2022-09-30T04:38:34;9.10;99.90
21787;DHT22;11055;50.870;4.316;2022-09-30T04:41:01;9.10;99.90
21787;DHT22;11055;50.870;4.316;2022-09-30T04:43:27;9.00;99.90
21787;DHT22;11055;50.870;4.316;2022-09-30T04:45:53;9.00;99.90
21787;DHT22;11055;50.870;4.316;2022-09-30T04:48:19;8.90;99.90
21787;DHT22;11055;50.870;4.316;2022-09-30T04:50:45;8.90;99.90
21787;DHT22;11055;50.870;4.316;2022-09-30T04:53:11;8.90;99.90
21787;DHT22;11055;50.870;4.316;2022-09-30T04:55:39;9.00;99.90
21787;DHT22;11055;50.870;4.316;2022-09-30T04:58:04;9.00;99.90
21787;DHT22;11055;50.870;4.316;2022-09-30T05:00:30;8.90;99.90
21787;DHT22;11055;50.870;4.316;2022-09-30T05:02:55;8.90;99.90
21787;DHT22;11055;50.870;4.316;2022-09-30T05:05:22;8.90;99.90
21787;DHT22;11055;50.870;4.316;2022-09-30T05:07:47;8.90;99.90
21787;DHT22;11055;50.870;4.316;2022-09-30T05:10:13;8.90;99.90
21787;DHT22;11055;50.870;4.316;2022-09-30T05:12:38;8.90;99.90
21787;DHT22;11055;50.870;4.316;2022-09-30T05:15:08;8.90;99.90
21787;DHT22;11055;50.870;4.316;2022-09-30T05:17:33;8.90;99.90
21787;DHT22;11055;50.870;4.316;2022-09-30T05:19:59;8.90;99.90
21787;DHT22;11055;50.870;4.316;2022-09-30T05:22:25;8.90;99.90
21787;DHT22;11055;50.870;4.316;2022-09-30T05:24:51;8.90;99.90
21787;DHT22;11055;50.870;4.316;2022-09-30T05:27:17;9.00;99.90
21787;DHT22;11055;50.870;4.316;2022-09-30T05:29:43;9.20;99.90
21787;DHT22;11055;50.870;4.316;2022-09-30T05:32:08;9.30;99.90
21787;DHT22;11055;50.870;4.316;2022-09-30T05:34:34;9.30;99.90
21787;DHT22;11055;50.870;4.316;2022-09-30T05:36:59;9.20;99.90
21787;DHT22;11055;50.870;4.316;2022-09-30T05:39:25;9.20;99.90
21787;DHT22;11055;50.870;4.316;2022-09-30T05:41:50;9.30;99.90
21787;DHT22;11055;50.870;4.316;2022-09-30T05:44:16;9.60;99.90
21787;DHT22;11055;50.870;4.316;2022-09-30T05:46:42;9.80;99.90
21787;DHT22;11055;50.870;4.316;2022-09-30T05:49:08;9.60;99.90
21787;DHT22;11055;50.870;4.316;2022-09-30T05:51:33;9.40;99.90
21787;DHT22;11055;50.870;4.316;2022-09-30T05:53:59;9.40;99.90
21787;DHT22;11055;50.870;4.316;2022-09-30T05:56:24;9.30;99.90
21787;DHT22;11055;50.870;4.316;2022-09-30T05:58:50;9.20;99.90
21787;DHT22;11055;50.870;4.316;2022-09-30T06:01:16;9.20;99.90
21787;DHT22;11055;50.870;4.316;2022-09-30T06:03:42;9.10;99.90
21787;DHT22;11055;50.870;4.316;2022-09-30T06:06:10;9.10;99.90
21787;DHT22;11055;50.870;4.316;2022-09-30T06:08:37;9.10;99.90
21787;DHT22;11055;50.870;4.316;2022-09-30T06:11:06;9.10;99.90
21787;DHT22;11055;50.870;4.316;2022-09-30T06:13:36;9.00;99.90
21787;DHT22;11055;50.870;4.316;2022-09-30T06:16:02;9.00;99.90
21787;DHT22;11055;50.870;4.316;2022-09-30T06:18:28;9.00;99.90
21787;DHT22;11055;50.870;4.316;2022-09-30T06:20:57;9.10;99.90
21787;DHT22;11055;50.870;4.316;2022-09-30T06:23:23;9.30;99.90
21787;DHT22;11055;50.870;4.316;2022-09-30T06:25:49;9.20;99.90
21787;DHT22;11055;50.870;4.316;2022-09-30T06:28:15;9.20;99.90
21787;DHT22;11055;50.870;4.316;2022-09-30T06:30:42;9.20;99.90
21787;DHT22;11055;50.870;4.316;2022-09-30T06:33:07;9.20;99.90
21787;DHT22;11055;50.870;4.316;2022-09-30T06:35:33;9.30;99.90
21787;DHT22;11055;50.870;4.316;2022-09-30T06:37:58;9.30;99.90
21787;DHT22;11055;50.870;4.316;2022-09-30T06:40:24;9.20;99.90
21787;DHT22;11055;50.870;4.316;2022-09-30T06:42:50;9.20;99.90
21787;DHT22;11055;50.870;4.316;2022-09-30T06:45:16;9.20;99.90
21787;DHT22;11055;50.870;4.316;2022-09-30T06:47:43;9.10;99.90
21787;DHT22;11055;50.870;4.316;2022-09-30T06:50:10;8.90;99.90
21787;DHT22;11055;50.870;4.316;2022-09-30T06:52:36;8.90;99.90
21787;DHT22;11055;50.870;4.316;2022-09-30T06:55:01;8.90;99.90
21787;DHT22;11055;50.870;4.316;2022-09-30T06:57:27;8.90;99.90
21787;DHT22;11055;50.870;4.316;2022-09-30T06:59:52;8.90;99.90
21787;DHT22;11055;50.870;4.316;2022-09-30T07:02:19;9.00;99.90
21787;DHT22;11055;50.870;4.316;2022-09-30T07:04:44;9.10;99.90
21787;DHT22;11055;50.870;4.316;2022-09-30T07:07:10;9.10;99.90
21787;DHT22;11055;50.870;4.316;2022-09-30T07:09:36;9.10;99.90
21787;DHT22;11055;50.870;4.316;2022-09-30T07:12:02;9.20;99.90
21787;DHT22;11055;50.870;4.316;2022-09-30T07:14:27;9.20;99.90
21787;DHT22;11055;50.870;4.316;2022-09-30T07:16:54;9.30;99.90
21787;DHT22;11055;50.870;4.316;2022-09-30T07:19:19;9.20;99.90
21787;DHT22;11055;50.870;4.316;2022-09-30T07:21:48;9.30;99.90
21787;DHT22;11055;50.870;4.316;2022-09-30T07:24:14;9.30;99.90
21787;DHT22;11055;50.870;4.316;2022-09-30T07:26:40;9.40;99.90
21787;DHT22;11055;50.870;4.316;2022-09-30T07:29:05;9.50;99.90
21787;DHT22;11055;50.870;4.316;2022-09-30T07:31:31;9.70;99.90
21787;DHT22;11055;50.870;4.316;2022-09-30T07:33:58;9.80;99.90
21787;DHT22;11055;50.870;4.316;2022-09-30T07:36:24;9.80;99.90
21787;DHT22;11055;50.870;4.316;2022-09-30T07:38:54;9.70;99.90
21787;DHT22;11055;50.870;4.316;2022-09-30T07:41:21;9.70;99.90
21787;DHT22;11055;50.870;4.316;2022-09-30T07:43:50;9.80;99.90
21787;DHT22;11055;50.870;4.316;2022-09-30T07:46:16;9.80;99.90
21787;DHT22;11055;50.870;4.316;2022-09-30T07:48:45;9.90;99.90
21787;DHT22;11055;50.870;4.316;2022-09-30T07:51:14;9.90;99.90
21787;DHT22;11055;50.870;4.316;2022-09-30T07:53:40;9.90;99.90
21787;DHT22;11055;50.870;4.316;2022-09-30T07:56:07;9.90;99.90
21787;DHT22;11055;50.870;4.316;2022-09-30T07:58:32;9.90;99.90
21787;DHT22;11055;50.870;4.316;2022-09-30T08:00:58;9.90;99.90
21787;DHT22;11055;50.870;4.316;2022-09-30T08:03:23;9.90;99.90
21787;DHT22;11055;50.870;4.316;2022-09-30T08:05:49;9.90;99.90
21787;DHT22;11055;50.870;4.316;2022-09-30T08:08:15;10.10;99.90
21787;DHT22;11055;50.870;4.316;2022-09-30T08:10:41;10.20;99.90
21787;DHT22;11055;50.870;4.316;2022-09-30T08:13:07;10.30;99.90
21787;DHT22;11055;50.870;4.316;2022-09-30T08:15:32;10.40;99.90
21787;DHT22;11055;50.870;4.316;2022-09-30T08:17:58;10.50;99.90
21787;DHT22;11055;50.870;4.316;2022-09-30T08:20:23;10.50;99.90
21787;DHT22;11055;50.870;4.316;2022-09-30T08:22:55;10.50;99.90
21787;DHT22;11055;50.870;4.316;2022-09-30T08:25:21;10.60;99.90
21787;DHT22;11055;50.870;4.316;2022-09-30T08:27:47;10.70;99.90
21787;DHT22;11055;50.870;4.316;2022-09-30T08:30:12;10.70;99.90
21787;DHT22;11055;50.870;4.316;2022-09-30T08:32:38;10.80;99.90
21787;DHT22;11055;50.870;4.316;2022-09-30T08:35:05;10.80;99.90
21787;DHT22;11055;50.870;4.316;2022-09-30T08:37:31;10.90;99.90
21787;DHT22;11055;50.870;4.316;2022-09-30T08:39:56;11.00;99.90
21787;DHT22;11055;50.870;4.316;2022-09-30T08:47:44;11.20;99.90
21787;DHT22;11055;50.870;4.316;2022-09-30T08:53:20;11.40;99.90
21787;DHT22;11055;50.870;4.316;2022-09-30T08:55:25;11.50;99.90
21787;DHT22;11055;50.870;4.316;2022-09-30T08:57:54;11.60;99.90
21787;DHT22;11055;50.870;4.316;2022-09-30T09:00:20;11.60;99.90
21787;DHT22;11055;50.870;4.316;2022-09-30T09:02:48;11.70;99.90
21787;DHT22;11055;50.870;4.316;2022-09-30T09:21:25;12.30;99.90
21787;DHT22;11055;50.870;4.316;2022-09-30T09:23:54;12.40;99.90
21787;DHT22;11055;50.870;4.316;2022-09-30T09:26:21;12.40;99.90
21787;DHT22;11055;50.870;4.316;2022-09-30T09:28:51;12.40;99.90
21787;DHT22;11055;50.870;4.316;2022-09-30T09:31:20;12.50;99.90
21787;DHT22;11055;50.870;4.316;2022-09-30T09:33:46;12.50;99.90
21787;DHT22;11055;50.870;4.316;2022-09-30T09:36:18;12.60;99.90
21787;DHT22;11055;50.870;4.316;2022-09-30T09:41:39;12.80;99.90
21787;DHT22;11055;50.870;4.316;2022-09-30T09:46:52;13.00;99.90
21787;DHT22;11055;50.870;4.316;2022-09-30T09:49:28;13.10;99.90
21787;DHT22;11055;50.870;4.316;2022-09-30T09:54:41;13.20;99.90
21787;DHT22;11055;50.870;4.316;2022-09-30T09:57:08;13.20;99.90
21787;DHT22;11055;50.870;4.316;2022-09-30T09:59:33;13.40;99.90
21787;DHT22;11055;50.870;4.316;2022-09-30T10:01:59;13.40;99.90
21787;DHT22;11055;50.870;4.316;2022-09-30T10:04:27;13.50;99.90
21787;DHT22;11055;50.870;4.316;2022-09-30T10:07:13;13.50;99.90
21787;DHT22;11055;50.870;4.316;2022-09-30T10:09:40;13.60;99.90
21787;DHT22;11055;50.870;4.316;2022-09-30T10:14:31;13.70;99.90
21787;DHT22;11055;50.870;4.316;2022-09-30T10:17:02;13.70;99.90
21787;DHT22;11055;50.870;4.316;2022-09-30T10:19:28;13.80;99.90
21787;DHT22;11055;50.870;4.316;2022-09-30T10:22:28;13.90;99.90
21787;DHT22;11055;50.870;4.316;2022-09-30T10:24:46;13.90;99.90
21787;DHT22;11055;50.870;4.316;2022-09-30T10:27:45;14.00;99.90
21787;DHT22;11055;50.870;4.316;2022-09-30T10:30:04;14.00;99.90
21787;DHT22;11055;50.870;4.316;2022-09-30T10:32:29;14.00;99.90
21787;DHT22;11055;50.870;4.316;2022-09-30T10:35:02;14.10;99.90
21787;DHT22;11055;50.870;4.316;2022-09-30T10:37:28;14.30;99.90
21787;DHT22;11055;50.870;4.316;2022-09-30T10:39:57;14.30;99.90
21787;DHT22;11055;50.870;4.316;2022-09-30T10:42:29;14.40;99.90
21787;DHT22;11055;50.870;4.316;2022-09-30T10:45:40;14.50;99.90
21787;DHT22;11055;50.870;4.316;2022-09-30T10:47:45;14.60;99.90
21787;DHT22;11055;50.870;4.316;2022-09-30T10:50:12;14.60;99.90
21787;DHT22;11055;50.870;4.316;2022-09-30T10:55:32;14.70;99.90
21787;DHT22;11055;50.870;4.316;2022-09-30T11:00:43;14.80;99.90
21787;DHT22;11055;50.870;4.316;2022-09-30T11:03:10;14.90;99.90
21787;DHT22;11055;50.870;4.316;2022-09-30T11:05:39;15.00;99.90
21787;DHT22;11055;50.870;4.316;2022-09-30T11:18:28;15.40;99.90
21787;DHT22;11055;50.870;4.316;2022-09-30T11:20:56;15.70;99.90
21787;DHT22;11055;50.870;4.316;2022-09-30T11:23:28;16.10;99.90
21787;DHT22;11055;50.870;4.316;2022-09-30T11:31:35;16.60;99.90
21787;DHT22;11055;50.870;4.316;2022-09-30T11:36:56;19.60;99.90
21787;DHT22;11055;50.870;4.316;2022-09-30T11:44:37;23.20;99.90
21787;DHT22;11055;50.870;4.316;2022-09-30T11:47:09;24.00;97.00
21787;DHT22;11055;50.870;4.316;2022-09-30T11:57:13;24.70;92.10
21787;DHT22;11055;50.870;4.316;2022-09-30T12:02:26;23.30;93.50
21787;DHT22;11055;50.870;4.316;2022-09-30T12:04:54;21.90;95.60
21787;DHT22;11055;50.870;4.316;2022-09-30T12:07:25;21.70;96.70
21787;DHT22;11055;50.870;4.316;2022-09-30T12:10:00;21.50;97.40
21787;DHT22;11055;50.870;4.316;2022-09-30T12:12:28;20.20;99.90
21787;DHT22;11055;50.870;4.316;2022-09-30T12:14:58;19.60;99.90
21787;DHT22;11055;50.870;4.316;2022-09-30T12:20:42;21.90;98.10
21787;DHT22;11055;50.870;4.316;2022-09-30T12:22:45;22.70;96.70
21787;DHT22;11055;50.870;4.316;2022-09-30T12:25:13;22.50;95.40
21787;DHT22;11055;50.870;4.316;2022-09-30T12:27:41;21.40;96.50
21787;DHT22;11055;50.870;4.316;2022-09-30T12:30:19;20.80;99.00
21787;DHT22;11055;50.870;4.316;2022-09-30T12:32:55;20.40;99.90
21787;DHT22;11055;50.870;4.316;2022-09-30T12:48:07;22.90;95.00
21787;DHT22;11055;50.870;4.316;2022-09-30T12:50:43;24.90;91.10
21787;DHT22;11055;50.870;4.316;2022-09-30T12:53:11;28.00;79.50
21787;DHT22;11055;50.870;4.316;2022-09-30T12:55:40;27.90;72.00
21787;DHT22;11055;50.870;4.316;2022-09-30T12:58:12;27.40;72.00
21787;DHT22;11055;50.870;4.316;2022-09-30T13:00:40;29.10;69.30
21787;DHT22;11055;50.870;4.316;2022-09-30T13:03:08;31.20;63.50
21787;DHT22;11055;50.870;4.316;2022-09-30T13:10:31;33.50;49.70
21787;DHT22;11055;50.870;4.316;2022-09-30T13:20:51;27.80;58.60
21787;DHT22;11055;50.870;4.316;2022-09-30T13:23:37;27.90;59.00
21787;DHT22;11055;50.870;4.316;2022-09-30T13:26:54;29.70;56.50
21787;DHT22;11055;50.870;4.316;2022-09-30T13:28:50;32.00;55.50
21787;DHT22;11055;50.870;4.316;2022-09-30T13:31:22;30.90;52.50
21787;DHT22;11055;50.870;4.316;2022-09-30T13:34:22;30.50;53.80
21787;DHT22;11055;50.870;4.316;2022-09-30T13:36:40;29.90;54.60
21787;DHT22;11055;50.870;4.316;2022-09-30T13:39:27;27.30;57.30
21787;DHT22;11055;50.870;4.316;2022-09-30T13:46:52;29.00;57.80
21787;DHT22;11055;50.870;4.316;2022-09-30T13:49:20;29.50;57.60
21787;DHT22;11055;50.870;4.316;2022-09-30T13:51:49;30.70;54.80
21787;DHT22;11055;50.870;4.316;2022-09-30T13:54:23;30.00;54.60
21787;DHT22;11055;50.870;4.316;2022-09-30T13:56:49;28.50;56.10
21787;DHT22;11055;50.870;4.316;2022-09-30T14:02:18;30.30;54.00
21787;DHT22;11055;50.870;4.316;2022-09-30T14:17:42;22.40;76.70
21787;DHT22;11055;50.870;4.316;2022-09-30T14:22:56;20.90;83.60
21787;DHT22;11055;50.870;4.316;2022-09-30T14:25:21;20.10;89.20
21787;DHT22;11055;50.870;4.316;2022-09-30T14:30:22;19.60;92.40
21787;DHT22;11055;50.870;4.316;2022-09-30T14:32:55;19.60;93.40
21787;DHT22;11055;50.870;4.316;2022-09-30T14:35:23;19.50;92.50
21787;DHT22;11055;50.870;4.316;2022-09-30T14:37:51;19.40;93.70
21787;DHT22;11055;50.870;4.316;2022-09-30T14:40:23;19.40;94.10
21787;DHT22;11055;50.870;4.316;2022-09-30T14:42:49;19.20;94.10
21787;DHT22;11055;50.870;4.316;2022-09-30T14:45:19;19.00;94.40
21787;DHT22;11055;50.870;4.316;2022-09-30T14:47:46;18.90;95.20
21787;DHT22;11055;50.870;4.316;2022-09-30T14:50:18;18.80;95.50
21787;DHT22;11055;50.870;4.316;2022-09-30T14:52:46;18.80;95.20
21787;DHT22;11055;50.870;4.316;2022-09-30T14:55:19;18.70;95.70
21787;DHT22;11055;50.870;4.316;2022-09-30T14:57:47;18.70;95.60
21787;DHT22;11055;50.870;4.316;2022-09-30T15:00:18;18.80;96.20
21787;DHT22;11055;50.870;4.316;2022-09-30T15:02:43;18.50;98.10
21787;DHT22;11055;50.870;4.316;2022-09-30T15:05:11;18.40;97.60
21787;DHT22;11055;50.870;4.316;2022-09-30T15:07:41;18.30;98.40
21787;DHT22;11055;50.870;4.316;2022-09-30T15:10:12;18.40;98.40
21787;DHT22;11055;50.870;4.316;2022-09-30T15:12:41;18.40;99.10
21787;DHT22;11055;50.870;4.316;2022-09-30T15:15:27;18.30;99.50
21787;DHT22;11055;50.870;4.316;2022-09-30T15:17:57;18.00;99.70
21787;DHT22;11055;50.870;4.316;2022-09-30T15:22:49;17.80;99.90
21787;DHT22;11055;50.870;4.316;2022-09-30T15:25:15;17.70;99.90
21787;DHT22;11055;50.870;4.316;2022-09-30T15:27:41;17.70;99.90
21787;DHT22;11055;50.870;4.316;2022-09-30T15:32:39;17.70;99.90
21787;DHT22;11055;50.870;4.316;2022-09-30T15:35:14;17.80;99.90
21787;DHT22;11055;50.870;4.316;2022-09-30T15:37:41;17.80;99.90
21787;DHT22;11055;50.870;4.316;2022-09-30T15:40:14;17.70;99.90
21787;DHT22;11055;50.870;4.316;2022-09-30T15:42:59;17.60;99.90
21787;DHT22;11055;50.870;4.316;2022-09-30T15:47:57;17.40;99.90
21787;DHT22;11055;50.870;4.316;2022-09-30T15:50:39;17.40;99.90
21787;DHT22;11055;50.870;4.316;2022-09-30T15:53:13;17.40;99.90
21787;DHT22;11055;50.870;4.316;2022-09-30T15:55:40;17.40;99.90
21787;DHT22;11055;50.870;4.316;2022-09-30T15:58:52;17.30;99.90
21787;DHT22;11055;50.870;4.316;2022-09-30T16:00:53;17.20;99.90
21787;DHT22;11055;50.870;4.316;2022-09-30T16:03:33;17.20;99.90
21787;DHT22;11055;50.870;4.316;2022-09-30T16:06:06;17.30;99.90
21787;DHT22;11055;50.870;4.316;2022-09-30T16:08:36;17.40;99.90
21787;DHT22;11055;50.870;4.316;2022-09-30T16:11:03;17.10;99.90
21787;DHT22;11055;50.870;4.316;2022-09-30T16:13:29;17.00;99.90
21787;DHT22;11055;50.870;4.316;2022-09-30T16:15:55;17.00;99.90
21787;DHT22;11055;50.870;4.316;2022-09-30T16:18:26;16.90;99.90
21787;DHT22;11055;50.870;4.316;2022-09-30T16:20:55;16.80;99.90
21787;DHT22;11055;50.870;4.316;2022-09-30T16:23:26;16.70;99.90
21787;DHT22;11055;50.870;4.316;2022-09-30T16:26:10;16.70;99.90
21787;DHT22;11055;50.870;4.316;2022-09-30T16:28:36;16.70;99.90
21787;DHT22;11055;50.870;4.316;2022-09-30T16:31:01;16.60;99.90
21787;DHT22;11055;50.870;4.316;2022-09-30T16:33:27;16.60;99.90
21787;DHT22;11055;50.870;4.316;2022-09-30T16:35:52;16.60;99.90
21787;DHT22;11055;50.870;4.316;2022-09-30T16:38:18;16.60;99.90
21787;DHT22;11055;50.870;4.316;2022-09-30T16:40:44;16.60;99.90
21787;DHT22;11055;50.870;4.316;2022-09-30T16:43:09;16.70;99.90
21787;DHT22;11055;50.870;4.316;2022-09-30T16:45:36;16.70;99.90
21787;DHT22;11055;50.870;4.316;2022-09-30T16:48:10;16.70;99.90
21787;DHT22;11055;50.870;4.316;2022-09-30T16:50:39;16.70;99.90
21787;DHT22;11055;50.870;4.316;2022-09-30T16:53:06;16.80;99.90
21787;DHT22;11055;50.870;4.316;2022-09-30T16:55:33;16.80;99.90
21787;DHT22;11055;50.870;4.316;2022-09-30T16:57:59;16.70;99.90
21787;DHT22;11055;50.870;4.316;2022-09-30T17:00:25;16.60;99.90
21787;DHT22;11055;50.870;4.316;2022-09-30T17:02:51;16.70;99.90
21787;DHT22;11055;50.870;4.316;2022-09-30T17:05:18;16.70;99.90
21787;DHT22;11055;50.870;4.316;2022-09-30T17:07:44;16.70;99.90
21787;DHT22;11055;50.870;4.316;2022-09-30T17:10:18;16.70;99.90
21787;DHT22;11055;50.870;4.316;2022-09-30T17:12:43;16.60;99.90
21787;DHT22;11055;50.870;4.316;2022-09-30T17:15:09;16.60;99.90
21787;DHT22;11055;50.870;4.316;2022-09-30T17:17:35;16.50;99.90
21787;DHT22;11055;50.870;4.316;2022-09-30T17:20:01;16.30;99.90
21787;DHT22;11055;50.870;4.316;2022-09-30T17:22:26;16.20;99.90
21787;DHT22;11055;50.870;4.316;2022-09-30T17:24:52;16.00;99.90
21787;DHT22;11055;50.870;4.316;2022-09-30T17:27:17;16.10;99.90
21787;DHT22;11055;50.870;4.316;2022-09-30T17:29:43;16.10;99.90
21787;DHT22;11055;50.870;4.316;2022-09-30T17:32:08;16.00;99.90
21787;DHT22;11055;50.870;4.316;2022-09-30T17:34:34;16.00;99.90
21787;DHT22;11055;50.870;4.316;2022-09-30T17:37:00;15.80;99.90
21787;DHT22;11055;50.870;4.316;2022-09-30T17:39:25;15.80;99.90
21787;DHT22;11055;50.870;4.316;2022-09-30T17:41:52;15.80;99.90
21787;DHT22;11055;50.870;4.316;2022-09-30T17:44:36;15.70;99.90
21787;DHT22;11055;50.870;4.316;2022-09-30T17:47:03;15.50;99.90
21787;DHT22;11055;50.870;4.316;2022-09-30T17:49:35;15.50;99.90
21787;DHT22;11055;50.870;4.316;2022-09-30T17:52:01;15.60;99.90
21787;DHT22;11055;50.870;4.316;2022-09-30T17:54:27;15.50;99.90
21787;DHT22;11055;50.870;4.316;2022-09-30T17:56:54;15.60;99.90
21787;DHT22;11055;50.870;4.316;2022-09-30T17:59:19;15.50;99.90
21787;DHT22;11055;50.870;4.316;2022-09-30T18:01:48;15.50;99.90
21787;DHT22;11055;50.870;4.316;2022-09-30T18:04:17;15.50;99.90
21787;DHT22;11055;50.870;4.316;2022-09-30T18:06:43;15.60;99.90
21787;DHT22;11055;50.870;4.316;2022-09-30T18:09:09;15.70;99.90
21787;DHT22;11055;50.870;4.316;2022-09-30T18:11:35;15.60;99.90
21787;DHT22;11055;50.870;4.316;2022-09-30T18:14:01;15.50;99.90
21787;DHT22;11055;50.870;4.316;2022-09-30T18:16:28;15.40;99.90
21787;DHT22;11055;50.870;4.316;2022-09-30T18:19:02;15.40;99.90
21787;DHT22;11055;50.870;4.316;2022-09-30T18:21:27;15.50;99.90
21787;DHT22;11055;50.870;4.316;2022-09-30T18:23:53;15.40;99.90
21787;DHT22;11055;50.870;4.316;2022-09-30T18:26:21;15.40;99.90
21787;DHT22;11055;50.870;4.316;2022-09-30T18:28:48;15.50;99.90
21787;DHT22;11055;50.870;4.316;2022-09-30T18:31:15;15.40;99.90
21787;DHT22;11055;50.870;4.316;2022-09-30T18:33:47;15.40;99.90
21787;DHT22;11055;50.870;4.316;2022-09-30T18:36:12;15.40;99.90
21787;DHT22;11055;50.870;4.316;2022-09-30T18:38:38;15.40;99.90
21787;DHT22;11055;50.870;4.316;2022-09-30T18:41:04;15.40;99.90
21787;DHT22;11055;50.870;4.316;2022-09-30T18:43:30;15.50;99.90
21787;DHT22;11055;50.870;4.316;2022-09-30T18:45:56;15.50;99.90
21787;DHT22;11055;50.870;4.316;2022-09-30T18:48:22;15.50;99.90
21787;DHT22;11055;50.870;4.316;2022-09-30T18:50:48;15.50;99.90
21787;DHT22;11055;50.870;4.316;2022-09-30T18:53:19;15.40;99.90
21787;DHT22;11055;50.870;4.316;2022-09-30T18:55:44;15.40;99.90